Time;durP1;ratioP1;P1;durP2;ratioP2;P2;SDS_P1;SDS_P2;PMS_P1;PMS_P2;Temp;Humidity;BMP_temperature;BMP_pressure;BME280_temperature;BME280_humidity;BME280_pressure;Samples;Min_cycle;Max_cycle;Signal;HPM_P1;HPM_P2
2023/07/18 00:02:11;;;;;;;2.50;2.22;;;24.40;84.30;;;23.62;66.98;100254.63;10426998;27;98069;-86
2023/07/18 00:07:15;;;;;;;2.97;2.50;;;24.40;84.90;;;23.67;67.39;100255.50;10419998;27;96883;-87
2023/07/18 00:12:19;;;;;;;4.18;2.72;;;24.50;85.20;;;23.65;67.74;100252.22;10423926;27;96924;-87
2023/07/18 00:17:23;;;;;;;6.00;2.40;;;24.50;85.40;;;23.63;67.59;100253.53;10459845;27;96612;-87
2023/07/18 00:22:27;;;;;;;2.95;2.42;;;24.40;85.40;;;23.62;67.09;100257.34;10453021;27;97425;-87
2023/07/18 00:27:31;;;;;;;3.55;2.20;;;24.40;85.30;;;23.59;67.42;100255.94;10438388;27;96760;-87
2023/07/18 00:32:35;;;;;;;2.50;1.90;;;24.40;85.30;;;23.53;66.85;100248.78;10442313;27;98486;-87
2023/07/18 00:37:41;;;;;;;4.50;2.13;;;24.30;84.90;;;23.56;65.92;100242.03;10421279;27;96758;-87
2023/07/18 00:42:47;;;;;;;2.25;1.90;;;24.30;84.40;;;23.59;66.40;100245.06;10439666;27;96771;-87
2023/07/18 00:47:52;;;;;;;2.40;2.20;;;24.30;84.50;;;23.63;66.38;100238.13;10448704;27;97963;-86
2023/07/18 00:52:56;;;;;;;2.60;2.28;;;24.40;84.60;;;23.63;66.42;100221.84;10432193;27;97841;-87
2023/07/18 00:58:01;;;;;;;5.35;2.35;;;24.40;84.70;;;23.61;66.64;100214.97;10426982;27;96835;-86
2023/07/18 01:03:06;;;;;;;3.03;2.17;;;24.40;84.90;;;23.59;66.83;100228.81;10445402;27;96773;-87
2023/07/18 01:08:10;;;;;;;4.55;2.22;;;24.40;85.10;;;23.54;67.37;100225.22;10443600;27;96896;-87
2023/07/18 01:13:14;;;;;;;2.72;2.20;;;24.30;85.40;;;23.46;67.71;100234.63;10466576;27;96653;-87
2023/07/18 01:18:17;;;;;;;2.47;1.95;;;24.30;85.50;;;23.41;67.94;100234.53;10460647;27;97236;-87
2023/07/18 01:23:21;;;;;;;5.85;2.30;;;24.20;85.60;;;23.45;67.81;100239.22;10421905;27;98159;-86
2023/07/18 01:28:24;;;;;;;3.63;2.40;;;24.20;85.60;;;23.52;67.67;100239.03;10451702;27;98106;-87
2023/07/18 01:33:28;;;;;;;3.97;2.55;;;24.30;85.60;;;23.54;67.39;100236.88;10439576;27;98038;-88
2023/07/18 01:38:32;;;;;;;3.38;2.20;;;24.30;85.40;;;23.62;67.13;100217.47;10479499;27;96573;-86
2023/07/18 01:43:36;;;;;;;3.72;2.75;;;24.40;85.40;;;23.64;67.20;100209.91;10457255;27;96669;-87
2023/07/18 01:48:39;;;;;;;2.80;2.50;;;24.50;85.50;;;23.71;67.45;100220.56;10448920;27;96637;-87
2023/07/18 01:53:43;;;;;;;3.25;2.22;;;24.50;85.70;;;23.67;67.77;100216.72;10462824;27;96741;-87
2023/07/18 01:58:46;;;;;;;4.05;2.40;;;24.50;86.00;;;23.68;68.37;100234.63;10465583;27;96637;-87
2023/07/18 02:03:50;;;;;;;2.95;2.45;;;24.50;86.40;;;23.63;69.11;100223.69;10473727;27;97284;-87
2023/07/18 02:08:54;;;;;;;3.97;2.50;;;24.40;86.90;;;23.61;69.84;100242.91;10448076;27;96634;-87
2023/07/18 02:13:57;;;;;;;3.63;2.53;;;24.40;87.40;;;23.55;70.53;100253.97;10464446;27;97459;-88
2023/07/18 02:19:03;;;;;;;3.95;2.80;;;24.30;88.00;;;23.45;71.44;100254.63;10448230;27;96596;-87
2023/07/18 02:24:07;;;;;;;3.72;2.40;;;24.20;88.70;;;23.40;71.98;100257.31;10414311;27;96578;-86
2023/07/18 02:29:10;;;;;;;3.40;2.60;;;24.20;89.30;;;23.36;72.53;100261.59;10442415;27;96616;-87
2023/07/18 02:34:14;;;;;;;6.78;3.08;;;24.20;89.80;;;23.39;72.40;100264.63;10425321;27;98535;-87
2023/07/18 02:39:19;;;;;;;3.67;3.00;;;24.20;90.00;;;23.35;72.64;100268.09;10410322;27;96824;-88
2023/07/18 02:44:22;;;;;;;3.70;3.10;;;24.20;90.10;;;23.40;72.85;100293.38;10439456;27;97360;-87
2023/07/18 02:49:26;;;;;;;3.53;2.63;;;24.20;90.10;;;23.33;72.79;100294.59;10441401;27;97839;-87
2023/07/18 02:54:30;;;;;;;5.90;3.17;;;24.10;90.20;;;23.34;72.71;100297.09;10429287;27;96706;-86
2023/07/18 02:59:33;;;;;;;4.22;2.65;;;24.10;90.20;;;23.34;73.13;100302.50;10410100;27;96582;-87
2023/07/18 03:04:38;;;;;;;3.53;2.63;;;24.10;90.30;;;23.34;72.65;100317.97;10412781;27;96738;-87
2023/07/18 03:09:41;;;;;;;4.45;3.00;;;24.10;90.30;;;23.31;72.21;100302.19;10439150;27;96619;-87
2023/07/18 03:14:46;;;;;;;4.45;2.92;;;24.10;90.20;;;23.30;71.83;100303.25;10457717;27;96627;-88
2023/07/18 03:19:49;;;;;;;5.20;3.25;;;24.10;90.00;;;23.31;71.35;100302.19;10445625;27;96642;-86
2023/07/18 03:24:55;;;;;;;4.40;2.95;;;24.10;89.80;;;23.33;71.26;100317.16;10438571;27;96654;-87
2023/07/18 03:29:58;;;;;;;5.07;3.35;;;24.10;89.70;;;23.28;71.59;100302.69;10435259;27;96612;-87
2023/07/18 03:35:02;;;;;;;5.15;3.22;;;24.00;89.80;;;23.23;71.93;100304.25;10449859;27;96665;-87
2023/07/18 03:40:07;;;;;;;4.47;3.35;;;24.00;90.00;;;23.17;72.22;100299.00;10459293;27;96685;-87
2023/07/18 03:45:13;;;;;;;4.25;3.08;;;24.00;90.10;;;23.13;72.63;100312.22;10441540;27;96620;-86
2023/07/18 03:50:17;;;;;;;6.88;3.38;;;23.90;90.20;;;23.04;72.79;100296.63;10409201;27;96622;-87
2023/07/18 03:55:22;;;;;;;5.55;2.90;;;23.90;90.40;;;23.13;72.36;100314.13;10448536;27;96674;-86
2023/07/18 04:00:26;;;;;;;4.85;3.17;;;23.90;90.30;;;23.15;72.11;100320.09;10435274;27;97190;-87
2023/07/18 04:05:29;;;;;;;4.53;2.90;;;23.90;90.20;;;23.20;71.66;100302.03;10438834;27;96904;-87
2023/07/18 04:10:33;;;;;;;4.25;2.78;;;24.00;90.10;;;23.33;71.12;100310.88;10407369;27;96607;-87
2023/07/18 04:15:37;;;;;;;5.45;3.25;;;24.10;89.80;;;23.39;70.52;100315.31;10428787;27;98030;-87
2023/07/18 04:20:40;;;;;;;5.97;3.15;;;24.20;89.60;;;23.50;70.16;100327.94;10435609;27;96978;-87
2023/07/18 04:26:14;;;;;;;4.00;2.90;;;24.30;89.30;;;23.55;70.06;100324.47;10439440;27;96848;-87
2023/07/18 04:31:19;;;;;;;4.05;3.00;;;24.30;89.10;;;23.60;70.69;100317.25;10414091;27;98389;-87
2023/07/18 04:36:25;;;;;;;3.88;3.15;;;24.30;89.40;;;23.62;70.22;100315.13;10460947;27;97525;-86
2023/07/18 04:41:29;;;;;;;5.28;2.65;;;24.40;89.30;;;23.66;70.03;100308.13;10453479;27;96769;-86
2023/07/18 04:46:52;;;;;;;4.10;3.03;;;24.40;89.20;;;23.73;69.63;100316.06;10470352;27;97271;-86
2023/07/18 04:51:56;;;;;;;6.80;3.35;;;24.50;89.00;;;23.76;70.02;100327.25;10431684;27;96734;-86
2023/07/18 04:57:00;;;;;;;4.03;3.00;;;24.60;88.90;;;23.84;70.22;100327.88;10420014;27;96977;-86
2023/07/18 05:02:07;;;;;;;5.60;3.17;;;24.60;89.00;;;23.96;70.36;100320.44;10409355;27;97070;-87
2023/07/18 05:07:11;;;;;;;5.55;3.05;;;24.80;89.20;;;24.16;70.59;100341.56;10454882;27;96694;-86
2023/07/18 05:12:14;;;;;;;5.28;3.08;;;25.00;89.30;;;24.30;70.04;100349.06;10457060;27;97464;-87
2023/07/18 05:17:18;;;;;;;3.00;2.65;;;25.20;88.60;;;24.45;68.51;100344.91;10427017;27;96520;-86
2023/07/18 05:22:22;;;;;;;5.60;2.67;;;25.30;87.80;;;24.59;67.85;100343.44;10444644;27;96673;-86
2023/07/18 05:27:25;;;;;;;4.45;2.40;;;25.40;87.50;;;24.74;68.36;100349.00;10453220;27;96542;-86
2023/07/18 05:32:29;;;;;;;4.43;3.22;;;25.60;87.60;;;24.87;67.80;100352.38;10394907;28;96731;-86
2023/07/18 05:37:32;;;;;;;3.70;2.88;;;25.70;87.60;;;25.03;66.95;100365.84;10434523;27;97382;-86
2023/07/18 05:42:37;;;;;;;6.90;2.95;;;25.80;86.80;;;25.16;66.30;100371.94;10441496;27;96722;-86
2023/07/18 05:47:42;;;;;;;4.20;2.75;;;26.00;86.60;;;25.36;66.53;100369.38;10445595;27;97144;-87
2023/07/18 05:52:48;;;;;;;3.80;2.80;;;26.20;86.90;;;25.58;64.29;100370.06;10480324;27;96602;-86
2023/07/18 05:57:52;;;;;;;4.82;2.72;;;26.40;85.40;;;25.76;60.40;100376.19;10482570;27;96644;-87
2023/07/18 06:02:55;;;;;;;2.88;2.38;;;26.60;82.90;;;25.88;62.13;100380.34;10460363;27;96607;-88
2023/07/18 06:08:03;;;;;;;3.63;2.38;;;26.80;83.00;;;26.02;61.13;100382.56;10445872;27;96989;-87
2023/07/18 06:13:07;;;;;;;3.63;2.47;;;26.90;82.70;;;26.12;58.80;100380.72;10460939;27;96629;-87
2023/07/18 06:18:10;;;;;;;4.97;2.53;;;27.00;81.00;;;26.25;56.90;100392.19;10445227;27;97443;-87
2023/07/18 06:23:14;;;;;;;6.00;2.65;;;27.00;79.40;;;26.35;58.31;100386.78;10443683;27;96980;-87
2023/07/18 06:28:18;;;;;;;3.45;2.60;;;27.20;79.90;;;26.38;58.58;100386.25;10443937;27;96838;-88
2023/07/18 06:33:22;;;;;;;5.38;2.60;;;27.20;80.00;;;26.44;58.49;100392.56;10445411;27;96719;-87
2023/07/18 06:38:26;;;;;;;6.97;3.13;;;27.30;80.00;;;26.47;56.96;100398.31;10447115;27;96707;-86
2023/07/18 06:43:30;;;;;;;4.68;3.05;;;27.30;79.20;;;26.50;57.48;100397.75;10434922;27;96647;-86
2023/07/18 06:48:33;;;;;;;8.18;3.10;;;27.30;79.30;;;26.52;59.10;100397.50;10460471;27;97830;-85
2023/07/18 06:53:37;;;;;;;3.55;2.65;;;27.30;80.00;;;26.61;59.36;100393.16;10448057;27;96452;-86
2023/07/18 06:58:41;;;;;;;3.92;2.65;;;27.30;80.40;;;26.72;59.43;100394.81;10464082;27;96564;-86
2023/07/18 07:03:45;;;;;;;4.20;2.65;;;27.50;80.90;;;26.86;58.44;100386.91;10443077;27;96616;-86
2023/07/18 07:08:50;;;;;;;4.15;2.28;;;27.60;80.60;;;27.10;53.31;100392.69;10415232;27;98281;-86
2023/07/18 07:13:53;;;;;;;4.38;2.45;;;27.80;77.00;;;27.28;45.10;100397.59;10450131;27;96703;-86
2023/07/18 07:18:57;;;;;;;3.92;2.50;;;28.10;69.60;;;27.51;44.28;100414.50;10447032;27;96661;-85
2023/07/18 07:24:01;;;;;;;3.55;2.53;;;28.30;68.90;;;27.74;41.44;100411.22;10446201;27;96642;-86
2023/07/18 07:29:07;;;;;;;4.18;2.22;;;28.60;65.50;;;27.91;41.20;100405.44;10468887;27;97915;-85
2023/07/18 07:34:11;;;;;;;6.25;2.47;;;28.80;64.00;;;28.16;40.45;100426.38;10444840;27;96640;-85
2023/07/18 07:39:14;;;;;;;5.55;2.45;;;29.00;63.10;;;28.37;40.22;100425.25;10464632;27;96486;-85
2023/07/18 07:44:18;;;;;;;4.80;2.03;;;29.20;62.10;;;28.54;39.55;100419.41;10461564;27;96739;-86
2023/07/18 07:49:22;;;;;;;4.43;2.47;;;29.40;61.80;;;28.63;41.64;100427.84;10446708;27;96854;-86
2023/07/18 07:54:26;;;;;;;4.43;2.17;;;29.50;62.30;;;28.71;37.38;100425.31;10439279;27;96473;-86
2023/07/18 07:59:29;;;;;;;4.78;2.92;;;29.60;60.40;;;28.82;38.43;100431.53;10406377;27;98303;-87
2023/07/18 08:04:34;;;;;;;7.28;2.58;;;29.60;59.70;;;28.97;39.61;100438.88;10456100;27;98273;-85
2023/07/18 08:09:38;;;;;;;2.53;2.22;;;29.70;60.80;;;29.09;39.01;100433.03;10431955;27;97287;-86
2023/07/18 08:14:42;;;;;;;3.47;2.47;;;29.90;60.60;;;29.11;38.60;100439.88;10432319;27;96648;-86
2023/07/18 08:19:45;;;;;;;5.88;2.80;;;29.90;59.70;;;29.13;36.38;100445.03;10461771;27;96603;-87
2023/07/18 08:24:49;;;;;;;7.38;2.70;;;29.90;58.30;;;28.95;36.70;100443.81;10445573;27;96619;-86
2023/07/18 08:29:53;;;;;;;6.32;3.20;;;29.80;57.40;;;28.80;38.14;100450.16;10445938;27;97678;-86
2023/07/18 08:34:56;;;;;;;5.57;3.30;;;29.60;58.30;;;28.77;38.46;100439.78;10445271;27;96651;-86
2023/07/18 08:40:00;;;;;;;4.78;2.70;;;29.60;58.80;;;28.93;39.17;100437.81;10444958;27;96573;-85
2023/07/18 08:45:07;;;;;;;5.07;2.63;;;29.70;59.40;;;29.03;37.68;100445.94;10415145;27;96553;-85
2023/07/18 08:50:11;;;;;;;4.32;2.80;;;29.70;58.30;;;28.92;38.33;100436.16;10444878;27;97140;-86
2023/07/18 08:55:15;;;;;;;4.85;3.08;;;29.70;58.40;;;28.87;38.65;100428.78;10457492;27;98565;-87
2023/07/18 09:00:20;;;;;;;7.50;2.83;;;29.60;59.00;;;28.94;39.11;100423.84;10425656;27;96653;-87
2023/07/18 09:05:37;;;;;;;3.85;2.67;;;29.70;59.30;;;29.05;38.29;100419.94;10412991;27;96670;-87
2023/07/18 09:10:41;;;;;;;5.82;2.83;;;29.80;58.20;;;29.22;39.23;100418.72;10443330;27;96595;-86
2023/07/18 09:15:45;;;;;;;4.97;2.88;;;29.90;59.40;;;29.43;37.51;100424.81;10453111;27;96669;-86
2023/07/18 09:20:54;;;;;;;4.15;2.90;;;30.20;58.20;;;29.39;37.01;100424.59;10410701;27;96706;-85
2023/07/18 09:26:05;;;;;;;6.10;2.90;;;30.20;57.30;;;29.53;35.67;100411.06;10446279;27;96941;-86
2023/07/18 09:31:19;;;;;;;6.60;3.38;;;30.30;56.10;;;29.46;34.59;100408.63;10458492;27;97914;-85
2023/07/18 09:36:24;;;;;;;5.85;3.05;;;30.20;54.30;;;29.54;32.79;100413.50;10433199;27;97950;-88
2023/07/18 09:41:30;;;;;;;5.25;2.70;;;30.30;53.80;;;29.58;32.28;100411.84;10448036;27;96811;-86
2023/07/18 09:46:35;;;;;;;4.45;2.47;;;30.30;52.50;;;29.67;33.04;100402.97;10435783;27;96712;-85
2023/07/18 09:51:40;;;;;;;7.05;2.50;;;30.30;52.80;;;29.77;33.27;100397.41;10425468;27;96691;-87
2023/07/18 09:56:45;;;;;;;4.38;2.58;;;30.50;53.00;;;29.96;32.23;100384.56;10437545;27;96452;-86
2023/07/18 10:01:51;;;;;;;3.30;2.33;;;30.60;52.70;;;30.15;31.97;100381.09;10420703;27;98070;-85
2023/07/18 10:06:55;;;;;;;5.57;2.35;;;30.90;52.20;;;30.24;30.84;100373.84;10441728;27;98166;-86
2023/07/18 10:11:59;;;;;;;3.58;2.20;;;31.00;51.10;;;30.30;31.37;100372.69;10436853;27;96587;-86
2023/07/18 10:17:05;;;;;;;2.88;2.30;;;31.10;51.00;;;30.32;31.01;100367.69;10430777;27;96471;-86
2023/07/18 10:22:11;;;;;;;;;;;31.10;51.00;;;30.42;30.88;100361.28;10420461;27;96748;-85
2023/07/18 10:27:17;;;;;;;4.40;2.45;;;31.20;50.20;;;30.40;30.86;100358.81;10453175;27;96701;-86
2023/07/18 10:32:31;;;;;;;3.75;2.47;;;31.20;50.40;;;30.54;30.76;100356.97;10464796;27;96632;-86
2023/07/18 10:37:37;;;;;;;3.60;2.60;;;31.30;50.40;;;30.62;30.60;100342.56;10448954;27;96839;-87
2023/07/18 10:42:43;;;;;;;4.18;2.15;;;31.40;50.40;;;30.74;31.39;100333.94;10444701;27;96798;-87
2023/07/18 10:47:46;;;;;;;8.30;2.58;;;31.50;50.70;;;30.89;30.70;100333.69;10451743;27;97353;-86
2023/07/18 10:52:50;;;;;;;6.45;2.78;;;31.70;50.60;;;30.90;31.03;100329.00;10454992;27;96765;-85
2023/07/18 10:57:55;;;;;;;4.07;2.75;;;31.70;50.50;;;30.97;31.17;100317.66;10417056;27;96535;-86
2023/07/18 11:02:59;;;;;;;5.72;2.83;;;31.70;50.60;;;31.12;31.32;100304.44;10428637;27;96589;-86
2023/07/18 11:08:03;;;;;;;4.60;2.90;;;31.90;50.80;;;31.35;31.54;100310.09;10447586;27;96886;-86
2023/07/18 11:13:07;;;;;;;3.58;2.22;;;32.10;50.90;;;31.39;30.81;100289.97;10447323;27;96421;-87
2023/07/18 11:18:11;;;;;;;3.50;2.50;;;32.30;50.30;;;31.47;30.81;100282.97;10447264;27;96572;-86
2023/07/18 11:23:53;;;;;;;6.55;3.35;;;32.30;50.50;;;31.50;31.11;100298.84;10446269;27;96656;-86
2023/07/18 11:34:37;;;;;;;5.03;2.58;;;32.30;49.60;;;31.60;30.70;100276.66;10423678;27;97144;-85
2023/07/18 11:39:46;;;;;;;3.97;2.50;;;32.30;50.00;;;31.73;31.06;100282.44;10458799;27;96513;-86
2023/07/18 11:44:52;;;;;;;;;;;32.50;50.20;;;31.81;29.92;100268.03;10422265;28;96556;-86
2023/07/18 11:50:01;;;;;;;4.15;2.50;;;32.60;48.90;;;31.87;29.91;100261.28;10418291;27;96870;-86
2023/07/18 11:55:05;;;;;;;4.97;2.60;;;32.70;49.30;;;32.02;28.40;100260.13;10455608;27;96517;-86
2023/07/18 12:00:11;;;;;;;3.90;2.50;;;32.80;49.00;;;32.14;29.72;100243.91;10458115;27;96562;-86
2023/07/18 12:05:15;;;;;;;4.32;2.60;;;32.90;49.10;;;32.26;29.54;100243.34;10446543;27;96444;-86
2023/07/18 12:10:21;;;;;;;4.20;2.60;;;33.10;49.30;;;32.34;29.28;100245.41;10409318;27;96681;-85
2023/07/18 12:15:28;;;;;;;;;;;33.20;49.10;;;32.27;29.43;100233.97;10404489;27;97215;-86
2023/07/18 12:20:32;;;;;;;4.97;2.78;;;33.20;48.30;;;32.30;29.41;100231.44;10458851;27;96636;-86
2023/07/18 12:25:36;;;;;;;4.72;2.30;;;33.30;49.00;;;32.46;30.41;100229.97;10461780;27;96593;-86
2023/07/18 12:30:40;;;;;;;4.57;2.53;;;33.40;49.50;;;32.72;29.46;100226.56;10445519;27;96557;-86
2023/07/18 12:35:43;;;;;;;5.38;2.60;;;33.70;48.90;;;32.83;28.91;100213.34;10441414;27;98315;-86
2023/07/18 12:40:47;;;;;;;5.55;2.50;;;33.80;48.60;;;32.91;28.60;100223.59;10435723;27;96588;-86
2023/07/18 12:45:51;;;;;;;3.17;2.60;;;33.90;48.90;;;33.15;28.86;100214.97;10451850;27;96868;-86
2023/07/18 12:50:54;;;;;;;4.80;3.22;;;34.20;48.30;;;33.48;29.16;100209.94;10412106;27;96501;-87
2023/07/18 12:55:58;;;;;;;3.03;2.40;;;34.50;48.20;;;33.58;28.25;100204.09;10471265;27;96724;-86
2023/07/18 13:01:02;;;;;;;5.60;2.70;;;34.70;47.60;;;33.78;28.78;100191.66;10449622;27;96847;-86
2023/07/18 13:06:08;;;;;;;8.73;2.95;;;35.00;47.80;;;34.05;27.65;100179.50;10461197;27;97426;-87
2023/07/18 13:11:11;;;;;;;5.38;3.08;;;35.50;47.30;;;34.21;27.18;100182.59;10451166;27;96685;-85
2023/07/18 13:16:15;;;;;;;4.95;2.60;;;35.80;46.60;;;34.53;26.85;100176.53;10441136;27;96839;-87
2023/07/18 13:21:20;;;;;;;6.47;3.00;;;36.30;46.30;;;34.83;28.07;100171.91;10432971;27;96761;-84
2023/07/18 13:26:24;;;;;;;3.70;2.85;;;36.60;46.90;;;35.37;25.94;100169.38;10442279;27;96823;-85
2023/07/18 13:31:27;;;;;;;3.78;2.47;;;37.30;45.50;;;35.66;26.13;100173.28;10468648;27;96452;-85
2023/07/18 13:36:32;;;;;;;3.83;2.47;;;37.30;45.20;;;35.83;26.00;100152.97;10439022;27;96773;-85
2023/07/18 13:41:36;;;;;;;5.60;2.53;;;37.10;45.90;;;35.99;26.21;100153.19;10444848;27;96594;-87
2023/07/18 13:46:39;;;;;;;5.03;3.10;;;36.90;45.70;;;35.65;25.60;100153.13;10450940;27;98266;-88
2023/07/18 13:51:43;;;;;;;3.92;2.53;;;36.30;45.40;;;35.31;25.58;100159.66;10420881;27;97297;-87
2023/07/18 13:56:47;;;;;;;5.82;2.47;;;35.70;45.60;;;35.08;26.50;100150.03;10410710;27;96491;-86
2023/07/18 14:01:51;;;;;;;6.43;2.80;;;35.40;46.20;;;34.91;27.56;100147.34;10449523;27;97208;-86
2023/07/18 14:06:55;;;;;;;4.20;2.80;;;35.20;47.30;;;34.88;26.90;100135.81;10453128;27;97171;-86
2023/07/18 14:11:59;;;;;;;5.00;2.67;;;35.30;47.10;;;34.77;26.49;100139.28;10443178;27;96736;-87
2023/07/18 14:17:03;;;;;;;5.53;2.75;;;35.40;46.40;;;34.47;26.60;100130.16;10447456;27;96546;-90
2023/07/18 14:22:08;;;;;;;4.85;2.38;;;35.30;46.00;;;34.21;26.96;100122.72;10444061;27;96590;-87
2023/07/18 14:27:13;;;;;;;3.45;2.65;;;35.00;45.80;;;34.00;27.30;100110.75;10429458;27;98129;-88
2023/07/18 14:32:16;;;;;;;5.88;2.38;;;34.90;46.00;;;33.91;27.52;100118.22;10433657;27;96421;-88
2023/07/18 14:37:20;;;;;;;6.95;2.78;;;34.80;46.00;;;33.92;27.31;100120.66;10446288;27;96972;-87
2023/07/18 14:42:24;;;;;;;5.50;2.58;;;35.00;46.00;;;34.08;27.14;100110.75;10470809;27;96663;-86
2023/07/18 14:47:28;;;;;;;4.93;2.25;;;35.30;45.50;;;34.10;26.91;100098.59;10453734;27;98215;-87
2023/07/18 14:52:32;;;;;;;5.38;2.35;;;35.40;45.20;;;34.20;26.69;100099.06;10428708;27;97455;-86
2023/07/18 14:57:35;;;;;;;3.30;2.30;;;35.60;45.20;;;34.26;26.56;100086.72;10448617;27;96741;-87
2023/07/18 15:02:39;;;;;;;3.05;2.28;;;35.80;45.10;;;34.45;26.15;100089.09;10454405;27;96732;-87
2023/07/18 15:07:43;;;;;;;4.38;2.30;;;36.10;44.60;;;34.98;26.20;100095.22;10420712;27;97787;-87
2023/07/18 15:12:47;;;;;;;5.07;2.33;;;36.40;44.80;;;35.31;25.47;100092.56;10437494;27;96637;-87
2023/07/18 15:17:50;;;;;;;6.75;2.63;;;36.80;44.20;;;35.49;24.82;100082.22;10393878;27;96926;-87
2023/07/18 15:22:54;;;;;;;5.35;2.55;;;36.80;43.40;;;35.43;25.34;100081.59;10422897;27;96681;-87
2023/07/18 15:28:01;;;;;;;4.07;2.58;;;36.60;43.70;;;35.42;25.01;100074.44;10446246;27;97835;-87
2023/07/18 15:33:04;;;;;;;6.40;2.53;;;36.60;43.80;;;35.45;25.64;100051.69;10405960;27;96502;-86
2023/07/18 15:38:27;;;;;;;3.42;2.40;;;36.80;44.40;;;35.84;25.15;100047.56;10418912;27;97895;-86
2023/07/18 15:43:32;;;;;;;3.92;2.20;;;37.10;44.00;;;36.25;25.35;100040.31;10436399;27;96697;-86
2023/07/18 15:48:35;;;;;;;6.15;2.88;;;37.50;44.00;;;36.43;24.68;100039.00;10424565;27;96736;-86
2023/07/18 15:53:39;;;;;;;3.83;2.28;;;37.70;43.50;;;36.35;24.83;100009.44;10460104;27;97499;-86
2023/07/18 15:58:43;;;;;;;2.40;2.20;;;37.60;43.50;;;36.41;24.43;99996.22;10428481;27;96714;-85
2023/07/18 16:03:47;;;;;;;5.47;2.83;;;37.60;43.40;;;36.02;24.14;100004.00;10421396;27;96548;-86
2023/07/18 16:08:51;;;;;;;4.10;2.55;;;37.20;43.10;;;35.53;25.23;99997.50;10456940;27;98405;-86
2023/07/18 16:13:54;;;;;;;4.38;2.70;;;36.60;43.60;;;35.10;25.60;99999.47;10440105;27;98412;-86
2023/07/18 16:19:03;;;;;;;2.90;2.20;;;35.90;43.90;;;34.81;26.30;99999.47;10437346;27;97322;-86
2023/07/18 16:24:09;;;;;;;7.35;2.75;;;35.50;44.40;;;34.47;26.92;100019.78;10444071;27;96577;-86
2023/07/18 16:29:13;;;;;;;5.63;2.80;;;35.10;45.10;;;34.11;28.08;100010.03;10421726;27;96866;-85
2023/07/18 16:34:17;;;;;;;3.50;2.50;;;34.80;45.80;;;33.74;27.98;100001.34;10421413;27;97363;-85
2023/07/18 16:39:20;;;;;;;4.35;2.78;;;34.50;45.90;;;33.53;28.72;100003.19;10460105;27;96785;-85
2023/07/18 16:44:24;;;;;;;4.95;2.65;;;34.40;46.20;;;33.15;28.70;100008.47;10435145;27;96829;-85
2023/07/18 16:49:28;;;;;;;10.98;3.13;;;34.10;46.50;;;32.79;29.70;100025.25;10447480;27;96634;-87
2023/07/18 16:54:31;;;;;;;8.45;2.20;;;33.70;47.40;;;32.39;30.91;100019.78;10426175;27;97233;-86
2023/07/18 16:59:35;;;;;;;7.20;2.45;;;33.30;48.00;;;31.91;31.47;100020.50;10436428;27;97957;-87
2023/07/18 17:04:39;;;;;;;3.35;2.20;;;32.80;48.50;;;31.45;32.35;100018.84;10437716;27;96725;-87
2023/07/18 17:09:42;;;;;;;6.80;2.70;;;32.30;49.20;;;31.03;33.31;100029.13;10434811;27;98390;-87
2023/07/18 17:14:46;;;;;;;6.18;2.15;;;31.90;50.00;;;30.65;34.03;100039.50;10434669;27;96638;-87
2023/07/18 17:19:49;;;;;;;4.13;2.33;;;31.60;50.60;;;30.39;35.29;100036.44;10407294;27;96660;-87
2023/07/18 17:25:09;;;;;;;6.15;2.45;;;31.30;51.80;;;30.05;37.59;100043.06;10444166;27;97125;-87
2023/07/18 17:30:13;;;;;;;7.13;3.05;;;30.90;53.90;;;29.44;38.28;100038.53;10463916;27;96696;-87
2023/07/18 17:35:17;;;;;;;4.30;2.63;;;30.40;54.90;;;29.08;38.86;100023.75;10449368;27;96686;-87
2023/07/18 17:40:21;;;;;;;7.35;2.40;;;30.00;55.80;;;28.86;39.66;100038.81;10426585;27;96620;-87
2023/07/18 17:45:25;;;;;;;8.68;3.05;;;29.70;56.40;;;28.65;39.95;100042.88;10463468;27;96894;-87
2023/07/18 17:50:28;;;;;;;3.78;2.70;;;29.60;56.30;;;28.50;40.31;100036.50;10439643;27;97762;-87
2023/07/18 17:55:32;;;;;;;7.18;3.20;;;29.40;56.80;;;28.44;40.37;100043.13;10438438;27;96822;-88
2023/07/18 18:00:36;;;;;;;4.25;2.85;;;29.40;56.80;;;28.44;41.40;100029.44;10432517;27;96644;-87
2023/07/18 18:05:46;;;;;;;4.68;2.92;;;29.30;56.90;;;28.38;41.26;100036.09;10431730;27;97111;-87
2023/07/18 18:10:51;;;;;;;3.88;2.50;;;29.30;57.10;;;28.36;41.17;100045.66;10425269;27;96757;-87
2023/07/18 18:15:55;;;;;;;6.88;2.92;;;29.20;57.30;;;28.32;41.94;100053.63;10472339;27;97489;-87
2023/07/18 18:21:11;;;;;;;4.88;2.47;;;29.10;58.00;;;28.27;41.90;100059.13;10432735;27;96770;-88
2023/07/18 18:26:15;;;;;;;9.50;2.60;;;29.10;58.00;;;28.16;42.22;100052.13;10435766;27;98417;-85
2023/07/18 18:31:19;;;;;;;6.70;2.70;;;29.00;58.00;;;28.05;42.47;100032.28;10433325;27;96706;-85
2023/07/18 18:36:23;;;;;;;8.07;2.70;;;28.90;58.50;;;27.97;43.17;100030.19;10441752;27;98597;-85
2023/07/18 18:41:27;;;;;;;14.32;2.63;;;28.80;59.10;;;27.88;43.73;100023.69;10450495;27;96574;-86
2023/07/18 18:46:30;;;;;;;10.05;2.90;;;28.70;59.50;;;27.75;43.66;100041.53;10420318;27;98301;-86
2023/07/18 18:51:34;;;;;;;3.80;2.65;;;28.50;59.40;;;27.67;44.60;100044.88;10432964;27;96988;-86
2023/07/18 18:56:37;;;;;;;5.95;2.80;;;28.50;60.10;;;27.57;43.69;100020.38;10438631;27;96734;-86
2023/07/18 19:01:41;;;;;;;4.07;2.50;;;28.40;59.70;;;27.60;43.80;100000.72;10408950;27;96622;-85
2023/07/18 19:06:45;;;;;;;5.43;3.03;;;28.40;59.80;;;27.59;44.59;99999.91;10422020;27;96542;-86
2023/07/18 19:11:49;;;;;;;5.60;2.63;;;28.40;60.30;;;27.57;45.24;100009.44;10374078;28;98112;-86
2023/07/18 19:16:53;;;;;;;5.53;3.40;;;28.30;60.80;;;27.45;46.06;99987.97;10379121;28;97366;-85
2023/07/18 19:21:57;;;;;;;6.53;3.08;;;28.20;61.50;;;27.27;47.10;99962.19;10377304;28;98185;-86
2023/07/18 19:27:01;;;;;;;5.10;3.20;;;28.10;62.10;;;27.06;47.49;99969.72;10379566;28;96567;-86
2023/07/18 19:32:08;;;;;;;5.35;3.10;;;27.90;63.60;;;26.90;48.82;99958.03;10360730;28;97144;-86
2023/07/18 19:37:12;;;;;;;6.88;2.72;;;27.70;63.80;;;26.66;48.92;99965.28;10395088;27;98417;-86
2023/07/18 19:42:16;;;;;;;6.95;2.78;;;27.60;64.40;;;26.58;49.38;99963.13;10372937;28;97517;-86
2023/07/18 19:47:20;;;;;;;6.80;2.80;;;27.40;64.60;;;26.36;50.71;99958.81;10376362;28;96619;-86
2023/07/18 19:52:23;;;;;;;5.78;3.10;;;27.20;65.20;;;26.21;51.18;99964.34;10358776;28;98699;-86
2023/07/18 19:57:27;;;;;;;8.43;2.60;;;27.00;65.90;;;26.09;52.04;99961.09;10366787;28;97878;-86
2023/07/18 20:02:30;;;;;;;9.05;3.05;;;26.90;66.50;;;25.98;52.79;99943.97;10378186;28;96890;-86
2023/07/18 20:07:34;;;;;;;5.28;3.13;;;26.70;66.90;;;25.86;52.83;99951.59;10396637;27;96681;-86
2023/07/18 20:12:39;;;;;;;4.18;2.80;;;26.60;67.50;;;25.75;53.28;99956.25;10457836;27;96528;-86
2023/07/18 20:17:43;;;;;;;10.13;3.92;;;26.50;67.80;;;25.64;54.19;99951.88;10443827;27;96622;-86
2023/07/18 20:22:47;;;;;;;6.45;3.00;;;26.40;68.50;;;25.59;54.60;99936.34;10451785;27;96621;-87
2023/07/18 20:27:51;;;;;;;7.25;3.42;;;26.40;68.90;;;25.61;54.24;99944.25;10453082;27;96945;-86
2023/07/18 20:32:54;;;;;;;5.32;3.25;;;26.40;68.80;;;25.67;54.50;99924.13;10464262;27;98502;-86
2023/07/18 20:37:59;;;;;;;6.50;3.53;;;26.50;69.00;;;25.69;55.51;99929.28;10427071;27;97091;-87
2023/07/18 20:43:04;;;;;;;4.60;3.10;;;26.50;69.10;;;25.66;55.39;99922.47;10431014;27;96774;-86
2023/07/18 20:48:07;;;;;;;6.45;3.08;;;26.50;69.30;;;25.61;56.34;99915.16;10425905;27;98179;-86
2023/07/18 20:53:11;;;;;;;10.73;3.47;;;26.50;69.80;;;25.57;56.20;99908.63;10407931;27;96974;-86
2023/07/18 20:58:14;;;;;;;5.15;3.40;;;26.50;70.10;;;25.45;56.57;99902.63;10443409;27;97811;-87
2023/07/18 21:03:18;;;;;;;12.45;3.50;;;26.40;70.00;;;25.35;56.23;99892.56;10419262;27;97544;-87